Time;durP1;ratioP1;P1;durP2;ratioP2;P2;SDS_P1;SDS_P2;PMS_P1;PMS_P2;Temp;Humidity;BMP_temperature;BMP_pressure;BME280_temperature;BME280_humidity;BME280_pressure;Samples;Min_cycle;Max_cycle;Signal;HPM_P1;HPM_P2
2022/01/01 00:00:16;;;;;;;83.63;56.37;;;11.90;99.90;;;;;;5069201;28;20671;-81
2022/01/01 00:02:43;;;;;;;78.73;56.43;;;11.80;99.90;;;;;;5072059;28;20262;-78
2022/01/01 00:05:11;;;;;;;150.53;107.73;;;11.70;99.90;;;;;;5053900;28;20212;-79
2022/01/01 00:07:40;;;;;;;195.33;140.07;;;11.70;99.90;;;;;;5053810;28;20211;-80
2022/01/01 00:10:08;;;;;;;90.43;65.03;;;11.70;99.90;;;;;;5070236;28;20284;-79
2022/01/01 00:12:34;;;;;;;75.87;51.70;;;11.90;99.90;;;;;;5054422;28;20257;-81
2022/01/01 00:15:00;;;;;;;131.40;88.30;;;12.00;99.90;;;;;;5070574;28;20208;-79
2022/01/01 00:17:26;;;;;;;181.10;122.40;;;12.00;99.90;;;;;;5069805;28;20207;-80
2022/01/01 00:19:52;;;;;;;75.83;55.03;;;12.00;99.90;;;;;;5071421;28;20699;-82
2022/01/01 00:22:18;;;;;;;71.30;49.00;;;12.00;99.90;;;;;;5072307;28;20199;-80
2022/01/01 00:24:44;;;;;;;49.23;37.37;;;12.10;99.90;;;;;;5071037;28;20208;-81
2022/01/01 00:27:09;;;;;;;76.80;51.93;;;12.10;99.90;;;;;;5053467;28;20308;-82
2022/01/01 00:29:35;;;;;;;163.60;110.00;;;12.30;99.90;;;;;;5071602;28;20227;-79
2022/01/01 00:32:03;;;;;;;42.60;28.57;;;12.30;99.90;;;;;;5069577;28;20203;-81
2022/01/01 00:34:29;;;;;;;32.00;19.70;;;12.30;99.90;;;;;;5052738;28;20208;-81
2022/01/01 00:36:55;;;;;;;26.63;17.43;;;12.30;99.90;;;;;;5070298;28;20268;-80
2022/01/01 00:39:20;;;;;;;19.97;14.13;;;12.30;99.90;;;;;;5037409;28;20276;-79
2022/01/01 00:41:47;;;;;;;21.13;13.53;;;12.40;99.90;;;;;;5065527;28;20195;-81
2022/01/01 00:44:13;;;;;;;17.87;11.90;;;12.40;99.90;;;;;;5063886;28;20204;-81
2022/01/01 00:46:39;;;;;;;16.77;11.10;;;12.40;99.90;;;;;;5080014;28;20219;-79
2022/01/01 00:49:06;;;;;;;16.83;10.63;;;12.40;99.90;;;;;;5077179;28;20231;-79
2022/01/01 00:51:33;;;;;;;21.10;14.13;;;12.30;99.90;;;;;;5054886;28;20232;-79
2022/01/01 00:53:59;;;;;;;16.90;11.40;;;12.30;99.90;;;;;;5068749;28;20214;-83
2022/01/01 00:56:25;;;;;;;16.43;11.37;;;12.20;99.90;;;;;;5035482;28;20285;-78
2022/01/01 00:58:50;;;;;;;16.13;11.83;;;12.20;99.90;;;;;;5070609;28;20207;-81
2022/01/01 01:01:16;;;;;;;14.97;10.57;;;12.10;99.90;;;;;;5069347;28;20208;-79
2022/01/01 01:03:42;;;;;;;15.37;10.03;;;12.10;99.90;;;;;;5052214;28;20200;-81
2022/01/01 01:06:10;;;;;;;15.03;8.97;;;12.10;99.90;;;;;;5051774;28;20249;-79
2022/01/01 01:08:36;;;;;;;14.83;9.90;;;12.10;99.90;;;;;;5069121;28;20220;-82
2022/01/01 01:11:07;;;;;;;12.70;8.17;;;12.00;99.90;;;;;;5070262;28;20205;-81
2022/01/01 01:13:33;;;;;;;13.87;8.27;;;11.90;99.90;;;;;;5056066;28;20200;-79
2022/01/01 01:16:00;;;;;;;12.07;8.60;;;11.90;99.90;;;;;;5057424;28;20227;-81
2022/01/01 01:18:26;;;;;;;13.07;9.23;;;11.80;99.90;;;;;;5073112;28;20667;-80
2022/01/01 01:20:52;;;;;;;13.13;8.73;;;11.80;99.90;;;;;;5057330;28;20196;-78
2022/01/01 01:23:18;;;;;;;14.23;8.90;;;11.90;99.90;;;;;;5056925;28;20573;-79
2022/01/01 01:25:44;;;;;;;13.00;9.07;;;12.00;99.90;;;;;;5055992;28;20204;-81
2022/01/01 01:28:11;;;;;;;13.90;9.20;;;12.10;99.90;;;;;;5072600;28;20284;-82
2022/01/01 01:30:38;;;;;;;12.80;8.67;;;12.10;99.90;;;;;;5084539;28;20191;-81
2022/01/01 01:33:06;;;;;;;12.03;8.50;;;12.10;99.90;;;;;;5081683;28;20354;-80
2022/01/01 01:35:32;;;;;;;14.37;9.10;;;12.20;99.90;;;;;;5073098;28;20701;-81
2022/01/01 01:37:58;;;;;;;12.20;8.33;;;12.20;99.90;;;;;;5073323;28;20296;-82
2022/01/01 01:40:24;;;;;;;16.13;9.17;;;12.30;99.90;;;;;;5040355;28;20295;-81
2022/01/01 01:42:50;;;;;;;13.77;9.17;;;12.40;99.90;;;;;;5073828;28;20333;-78
2022/01/01 01:45:18;;;;;;;17.00;10.07;;;12.40;99.90;;;;;;5074658;28;20208;-79
2022/01/01 01:47:45;;;;;;;15.30;10.20;;;12.40;99.90;;;;;;5040180;28;20255;-82
2022/01/01 01:50:13;;;;;;;18.50;11.47;;;12.40;99.90;;;;;;5058553;28;20687;-81
2022/01/01 01:52:40;;;;;;;16.00;11.33;;;12.30;99.90;;;;;;5077874;28;20670;-79
2022/01/01 01:55:08;;;;;;;25.70;16.07;;;12.30;99.90;;;;;;5076174;28;20224;-80
2022/01/01 01:57:40;;;;;;;25.37;16.97;;;12.30;99.90;;;;;;5040555;28;20200;-79
2022/01/01 02:00:22;;;;;;;27.33;18.03;;;12.10;99.90;;;;;;5056976;28;20210;-79
2022/01/01 02:02:48;;;;;;;25.90;17.37;;;12.10;99.90;;;;;;5059076;28;20702;-79
2022/01/01 02:05:14;;;;;;;33.00;20.93;;;12.20;99.90;;;;;;5056432;28;20196;-79
2022/01/01 02:07:42;;;;;;;34.63;22.33;;;12.30;99.90;;;;;;5056486;28;20235;-81
2022/01/01 02:10:09;;;;;;;29.43;18.40;;;12.20;99.90;;;;;;5075640;28;20196;-82
2022/01/01 02:12:34;;;;;;;27.77;17.33;;;11.90;99.90;;;;;;5058308;28;20578;-82
2022/01/01 02:17:29;;;;;;;13.20;8.93;;;12.00;99.90;;;;;;5074200;28;20201;-79
2022/01/01 02:20:01;;;;;;;12.23;8.47;;;12.10;99.90;;;;;;5073427;28;20192;-79
2022/01/01 02:22:44;;;;;;;12.83;8.67;;;12.10;99.90;;;;;;5058047;28;20204;-81
2022/01/01 02:25:10;;;;;;;13.67;7.93;;;12.00;99.90;;;;;;5072204;28;20196;-79
2022/01/01 02:27:36;;;;;;;11.53;7.83;;;12.00;99.90;;;;;;5078800;28;20207;-78
2022/01/01 02:30:08;;;;;;;14.17;8.53;;;12.10;99.90;;;;;;5075793;28;20571;-78
2022/01/01 02:32:34;;;;;;;11.17;7.70;;;12.10;99.90;;;;;;5092753;28;20302;-80
2022/01/01 02:35:00;;;;;;;12.47;8.30;;;12.20;99.90;;;;;;5055336;28;20640;-79
2022/01/01 02:37:26;;;;;;;12.50;8.33;;;12.20;99.90;;;;;;5071876;28;20192;-80
2022/01/01 02:39:52;;;;;;;11.37;7.37;;;12.20;99.90;;;;;;5073518;28;20191;-80
2022/01/01 02:42:22;;;;;;;12.30;7.70;;;12.00;99.90;;;;;;5071846;28;20192;-82
2022/01/01 02:44:50;;;;;;;10.77;7.70;;;12.00;99.90;;;;;;5073205;28;20201;-82
2022/01/01 02:47:16;;;;;;;9.93;6.93;;;12.00;99.90;;;;;;5038500;28;20709;-82
2022/01/01 02:49:41;;;;;;;11.20;7.33;;;12.10;99.90;;;;;;5071978;28;20260;-79
2022/01/01 02:52:07;;;;;;;11.70;7.60;;;12.00;99.90;;;;;;5073390;28;20561;-81
2022/01/01 02:54:33;;;;;;;10.70;7.20;;;12.00;99.90;;;;;;5073197;28;20849;-79
2022/01/01 02:56:59;;;;;;;10.90;7.10;;;11.90;99.90;;;;;;5071428;28;20200;-80
2022/01/01 02:59:24;;;;;;;11.07;7.57;;;11.80;99.90;;;;;;5055080;28;20204;-80
2022/01/01 03:01:51;;;;;;;9.87;6.87;;;11.90;99.90;;;;;;5055326;28;20703;-81
2022/01/01 03:04:17;;;;;;;11.17;6.47;;;11.80;99.90;;;;;;5071499;28;20227;-82
2022/01/01 03:06:43;;;;;;;11.50;7.20;;;12.10;99.90;;;;;;5054630;28;20223;-81
2022/01/01 03:09:09;;;;;;;9.83;6.53;;;12.20;99.90;;;;;;5055246;28;20207;-79
2022/01/01 03:11:35;;;;;;;11.73;7.50;;;12.30;99.90;;;;;;5054861;28;20196;-81
2022/01/01 03:14:01;;;;;;;12.77;7.20;;;12.20;99.90;;;;;;5072707;28;20724;-81
2022/01/01 03:16:27;;;;;;;11.23;7.87;;;12.20;99.90;;;;;;5054590;28;20200;-81
2022/01/01 03:18:53;;;;;;;12.13;7.90;;;12.10;99.90;;;;;;5037994;28;20200;-81
2022/01/01 03:21:18;;;;;;;12.57;8.97;;;12.40;99.90;;;;;;5037926;28;20183;-82
2022/01/01 03:23:44;;;;;;;15.90;10.27;;;12.30;99.90;;;;;;5071193;28;20679;-78
2022/01/01 03:26:10;;;;;;;15.73;11.17;;;12.30;99.90;;;;;;5053700;28;20201;-79
2022/01/01 03:28:36;;;;;;;23.43;15.77;;;12.30;99.90;;;;;;5085894;28;20219;-81
2022/01/01 03:31:02;;;;;;;22.73;15.40;;;12.20;99.90;;;;;;5071206;28;20200;-78
2022/01/01 03:33:28;;;;;;;22.40;15.47;;;12.20;99.90;;;;;;5071026;28;20222;-81
2022/01/01 03:35:54;;;;;;;24.53;16.23;;;12.10;99.90;;;;;;5054584;28;20227;-82
2022/01/01 03:38:20;;;;;;;26.67;16.20;;;12.10;99.90;;;;;;5054251;28;20193;-82
2022/01/01 03:40:46;;;;;;;20.07;14.33;;;12.20;99.90;;;;;;5070995;28;20279;-80
2022/01/01 03:43:12;;;;;;;26.37;18.27;;;12.10;99.90;;;;;;5070743;28;20613;-79
2022/01/01 03:45:38;;;;;;;29.20;16.03;;;12.20;99.90;;;;;;5054253;28;20189;-81
2022/01/01 03:48:07;;;;;;;24.97;15.87;;;12.10;99.90;;;;;;5070524;28;20341;-78
2022/01/01 03:50:33;;;;;;;26.60;15.63;;;12.20;99.90;;;;;;5070606;28;20176;-81
2022/01/01 03:52:59;;;;;;;24.03;15.03;;;12.20;99.90;;;;;;5053561;28;20559;-79
2022/01/01 03:55:25;;;;;;;27.00;16.37;;;12.10;99.90;;;;;;5054135;28;20271;-82
2022/01/01 03:57:51;;;;;;;26.83;17.80;;;11.80;99.90;;;;;;5054057;28;20348;-81
2022/01/01 04:00:17;;;;;;;30.47;19.47;;;11.90;99.90;;;;;;5054136;28;20199;-82
2022/01/01 04:02:43;;;;;;;28.67;18.53;;;12.00;99.90;;;;;;5053947;28;20193;-79
2022/01/01 04:05:09;;;;;;;26.67;18.20;;;12.10;99.90;;;;;;5053837;28;20203;-81
2022/01/01 04:07:35;;;;;;;30.50;19.60;;;12.10;99.90;;;;;;5037224;28;20239;-81
2022/01/01 04:10:01;;;;;;;27.87;19.57;;;12.20;99.90;;;;;;5071087;28;20235;-79
2022/01/01 04:12:27;;;;;;;32.47;19.87;;;12.20;99.90;;;;;;5053859;28;20210;-79
2022/01/01 04:14:53;;;;;;;29.73;20.03;;;12.10;99.90;;;;;;5070472;28;20210;-80
2022/01/01 04:17:19;;;;;;;32.73;21.33;;;12.20;99.90;;;;;;5071640;28;20265;-79
2022/01/01 04:19:45;;;;;;;32.63;21.53;;;12.20;99.90;;;;;;5070218;28;20650;-81
2022/01/01 04:22:16;;;;;;;32.37;21.20;;;12.20;99.90;;;;;;5070550;28;20184;-80
2022/01/01 04:24:42;;;;;;;26.47;18.53;;;12.10;99.90;;;;;;5069938;28;20222;-79
2022/01/01 04:27:09;;;;;;;24.73;16.83;;;12.00;99.90;;;;;;5070464;28;20236;-83
2022/01/01 04:29:36;;;;;;;25.37;17.43;;;11.80;99.90;;;;;;5069852;28;20198;-79
2022/01/01 04:32:02;;;;;;;28.30;17.10;;;12.00;99.90;;;;;;5071439;28;20203;-82
2022/01/01 04:34:28;;;;;;;29.30;19.77;;;11.90;99.90;;;;;;5052931;28;20560;-81
2022/01/01 04:37:03;;;;;;;31.63;19.63;;;12.00;99.90;;;;;;5037063;28;20672;-79
2022/01/01 04:39:29;;;;;;;29.37;20.13;;;12.10;99.90;;;;;;5069910;28;20713;-80
2022/01/01 04:41:55;;;;;;;27.77;19.47;;;12.30;99.90;;;;;;5053917;28;20196;-82
2022/01/01 04:44:21;;;;;;;28.27;19.47;;;12.10;99.90;;;;;;5069818;28;20207;-82
2022/01/01 04:46:47;;;;;;;28.63;18.83;;;12.00;99.90;;;;;;5053249;28;20203;-79
2022/01/01 04:49:13;;;;;;;30.30;19.33;;;12.00;99.90;;;;;;5053600;28;20237;-82
2022/01/01 04:51:38;;;;;;;31.37;19.67;;;12.00;99.90;;;;;;5069728;28;20782;-82
2022/01/01 04:54:10;;;;;;;31.87;18.67;;;12.00;99.90;;;;;;5053355;28;20212;-81
2022/01/01 04:56:42;;;;;;;31.30;20.10;;;12.00;99.90;;;;;;5071203;28;20550;-79
2022/01/01 04:59:08;;;;;;;30.20;19.43;;;11.90;99.90;;;;;;5054398;28;20225;-79
2022/01/01 05:01:34;;;;;;;26.13;17.40;;;11.80;99.90;;;;;;5052853;28;20196;-82
2022/01/01 05:04:00;;;;;;;22.53;14.87;;;11.70;99.90;;;;;;5069962;28;20239;-81
2022/01/01 05:06:26;;;;;;;25.77;16.63;;;11.50;99.90;;;;;;5052950;28;20192;-82
2022/01/01 05:08:52;;;;;;;25.13;15.97;;;11.50;99.90;;;;;;5053140;28;20199;-81
2022/01/01 05:11:18;;;;;;;21.90;14.30;;;11.60;99.90;;;;;;5052590;28;20667;-81
2022/01/01 05:13:44;;;;;;;21.70;14.33;;;11.40;99.90;;;;;;5069764;28;20549;-79
2022/01/01 05:16:14;;;;;;;23.07;15.20;;;11.10;99.90;;;;;;5053047;28;20196;-79
2022/01/01 05:18:40;;;;;;;22.27;14.67;;;11.10;99.90;;;;;;5069582;28;20831;-78
2022/01/01 05:21:06;;;;;;;21.23;13.07;;;11.20;99.90;;;;;;5053408;28;20197;-79
2022/01/01 05:23:33;;;;;;;16.73;11.83;;;11.20;99.90;;;;;;5069881;28;20261;-81
2022/01/01 05:25:59;;;;;;;18.23;11.80;;;11.10;99.90;;;;;;5053037;28;20265;-80
2022/01/01 05:28:25;;;;;;;15.20;10.23;;;11.10;99.90;;;;;;5053381;28;20228;-79
2022/01/01 05:30:51;;;;;;;16.67;10.40;;;11.00;99.90;;;;;;5036402;28;20671;-82
2022/01/01 05:33:17;;;;;;;17.37;11.17;;;11.20;99.90;;;;;;5070968;28;20667;-80
2022/01/01 05:35:43;;;;;;;17.27;11.07;;;11.30;99.90;;;;;;5068988;28;20296;-81
2022/01/01 05:38:09;;;;;;;17.27;11.13;;;11.00;99.90;;;;;;5052582;28;20276;-79
2022/01/01 05:40:35;;;;;;;15.70;9.63;;;11.00;99.90;;;;;;5069655;28;20291;-79
2022/01/01 05:43:00;;;;;;;18.47;11.67;;;11.10;99.90;;;;;;5036179;28;20169;-79
2022/01/01 05:45:26;;;;;;;23.37;13.87;;;11.10;99.90;;;;;;5069240;28;20238;-80
2022/01/01 05:47:52;;;;;;;15.60;9.57;;;11.10;99.90;;;;;;5069396;28;20284;-82
2022/01/01 05:50:20;;;;;;;13.63;9.27;;;11.00;99.90;;;;;;5069381;28;20547;-81
2022/01/01 05:52:46;;;;;;;12.33;8.33;;;10.80;99.90;;;;;;5052924;28;20203;-79
2022/01/01 05:55:12;;;;;;;11.20;7.40;;;10.60;99.90;;;;;;5036265;28;20338;-79
2022/01/01 05:57:38;;;;;;;8.63;5.87;;;10.40;99.90;;;;;;5070780;28;20259;-81
2022/01/01 06:00:07;;;;;;;6.90;4.73;;;10.50;99.90;;;;;;5040124;28;20204;-82
2022/01/01 06:02:43;;;;;;;7.07;4.97;;;10.80;99.90;;;;;;5072972;28;20192;-80
2022/01/01 06:05:11;;;;;;;11.30;7.07;;;11.00;99.90;;;;;;5073945;28;20287;-79
2022/01/01 06:07:38;;;;;;;13.67;8.97;;;11.20;99.90;;;;;;5055794;28;20212;-81
2022/01/01 06:10:05;;;;;;;13.60;8.53;;;11.40;99.90;;;;;;5072281;28;20176;-78
2022/01/01 06:12:31;;;;;;;13.67;9.27;;;11.50;99.90;;;;;;5056039;28;20284;-78
2022/01/01 06:14:57;;;;;;;15.37;9.33;;;11.40;99.90;;;;;;5072694;28;20193;-78
2022/01/01 06:17:23;;;;;;;15.20;10.37;;;11.40;99.90;;;;;;5055949;28;20192;-80
2022/01/01 06:19:50;;;;;;;17.67;10.30;;;11.30;99.90;;;;;;5073531;28;20203;-79
2022/01/01 06:22:17;;;;;;;15.53;9.67;;;11.20;99.90;;;;;;5072514;28;20200;-81
2022/01/01 06:24:43;;;;;;;16.30;9.70;;;11.10;99.90;;;;;;5039384;28;20200;-80
2022/01/01 06:27:09;;;;;;;17.63;10.07;;;11.10;99.90;;;;;;5055794;28;20226;-80
2022/01/01 06:29:34;;;;;;;12.37;8.40;;;11.10;99.90;;;;;;5056326;28;20215;-81
2022/01/01 06:32:00;;;;;;;13.07;8.23;;;11.30;99.90;;;;;;5056254;28;20193;-79
2022/01/01 06:34:26;;;;;;;9.90;6.30;;;11.30;99.90;;;;;;5039087;28;20262;-80
2022/01/01 06:36:52;;;;;;;7.70;4.77;;;11.20;99.90;;;;;;5056644;28;20641;-82
2022/01/01 06:39:18;;;;;;;5.63;3.80;;;11.40;99.90;;;;;;5072617;28;20532;-79
2022/01/01 06:41:44;;;;;;;5.90;3.43;;;11.30;99.90;;;;;;5073471;28;20192;-79
2022/01/01 06:44:09;;;;;;;5.43;3.50;;;11.30;99.90;;;;;;5055273;28;20208;-82
2022/01/01 06:46:35;;;;;;;4.63;2.60;;;11.20;99.90;;;;;;5072090;28;20192;-78
2022/01/01 06:49:01;;;;;;;3.77;2.70;;;11.20;99.90;;;;;;5071753;28;20215;-82
2022/01/01 06:51:27;;;;;;;5.87;3.17;;;11.10;99.90;;;;;;5072220;28;20192;-82
2022/01/01 06:53:53;;;;;;;3.93;2.70;;;11.20;99.90;;;;;;5055284;28;20215;-82
2022/01/01 06:56:18;;;;;;;3.97;2.90;;;11.20;99.90;;;;;;5071926;28;20341;-79
2022/01/01 06:58:45;;;;;;;3.37;2.70;;;11.20;99.90;;;;;;5072035;28;20197;-81
2022/01/01 07:01:11;;;;;;;3.40;2.40;;;11.30;99.90;;;;;;5072482;28;20283;-80
2022/01/01 07:03:37;;;;;;;4.77;2.57;;;11.30;99.90;;;;;;5055292;28;20192;-83
2022/01/01 07:06:02;;;;;;;5.13;2.90;;;11.40;99.90;;;;;;5071068;28;20200;-79
2022/01/01 07:08:28;;;;;;;3.47;2.47;;;11.60;99.90;;;;;;5070942;28;20266;-79
2022/01/01 07:10:54;;;;;;;3.40;2.53;;;11.60;99.90;;;;;;5055046;28;20219;-82
2022/01/01 07:13:20;;;;;;;3.40;2.37;;;11.30;99.90;;;;;;5055050;28;20275;-79
2022/01/01 07:15:46;;;;;;;4.10;2.53;;;11.30;99.90;;;;;;5071516;28;20283;-79
2022/01/01 07:18:12;;;;;;;3.00;2.40;;;11.50;99.90;;;;;;5038601;28;20210;-83
2022/01/01 07:20:38;;;;;;;3.33;2.57;;;11.50;99.90;;;;;;5054981;28;20261;-82
2022/01/01 07:23:04;;;;;;;3.73;2.33;;;11.40;99.90;;;;;;5071180;28;20192;-79
2022/01/01 07:25:30;;;;;;;5.13;2.63;;;11.50;99.90;;;;;;5071798;28;20215;-82
2022/01/01 07:27:56;;;;;;;3.33;2.10;;;11.60;99.90;;;;;;5071094;28;20216;-83
2022/01/01 07:30:22;;;;;;;3.77;2.73;;;11.60;99.90;;;;;;5072977;28;20196;-79
2022/01/01 07:32:48;;;;;;;3.20;2.40;;;11.50;99.90;;;;;;5072874;28;20249;-80
2022/01/01 07:35:16;;;;;;;4.23;2.53;;;11.50;99.90;;;;;;5054592;28;20271;-81
2022/01/01 07:37:42;;;;;;;3.13;2.00;;;11.60;99.90;;;;;;5070395;28;20201;-82
2022/01/01 07:40:11;;;;;;;4.20;2.60;;;11.70;99.90;;;;;;5037636;28;20180;-80
2022/01/01 07:42:37;;;;;;;4.57;2.93;;;11.70;99.90;;;;;;5037798;28;20291;-79
2022/01/01 07:45:04;;;;;;;3.40;2.60;;;11.80;99.90;;;;;;5037806;28;20211;-79
2022/01/01 07:47:30;;;;;;;4.13;2.60;;;11.80;99.90;;;;;;5072137;28;20216;-83
2022/01/01 07:49:56;;;;;;;3.17;2.50;;;11.90;99.90;;;;;;5054797;28;20189;-82
2022/01/01 07:52:22;;;;;;;5.13;3.40;;;11.90;99.90;;;;;;5054643;28;20583;-79
2022/01/01 07:54:48;;;;;;;7.20;3.40;;;11.70;99.90;;;;;;5054257;28;20197;-79
2022/01/01 07:57:13;;;;;;;3.50;2.53;;;11.80;99.90;;;;;;5072465;28;20192;-82
2022/01/01 07:59:39;;;;;;;4.87;2.70;;;11.90;99.90;;;;;;5037208;28;20196;-82
2022/01/01 08:02:05;;;;;;;3.87;2.57;;;11.90;99.90;;;;;;5059386;28;20207;-80
2022/01/01 08:04:34;;;;;;;4.17;2.50;;;12.00;99.90;;;;;;5050910;28;20268;-82
2022/01/01 08:07:01;;;;;;;3.13;2.20;;;12.00;99.90;;;;;;5067380;28;20220;-78
2022/01/01 08:09:28;;;;;;;3.93;2.37;;;11.90;99.90;;;;;;5069024;28;20699;-82
2022/01/01 08:11:54;;;;;;;3.63;2.67;;;12.00;99.90;;;;;;5053655;28;20258;-79
2022/01/01 08:14:21;;;;;;;3.63;2.63;;;12.00;99.90;;;;;;5070178;28;20714;-80
2022/01/01 08:17:01;;;;;;;4.33;2.70;;;11.90;99.90;;;;;;5071522;28;20253;-83
2022/01/01 08:19:28;;;;;;;2.97;2.43;;;11.80;99.90;;;;;;5053424;28;20192;-78
2022/01/01 08:21:54;;;;;;;3.70;2.30;;;11.70;99.90;;;;;;5053379;28;20223;-79
2022/01/01 08:24:21;;;;;;;5.67;2.17;;;11.70;99.90;;;;;;5037163;28;20257;-82
2022/01/01 08:26:47;;;;;;;3.13;2.30;;;11.70;99.90;;;;;;5070258;28;20600;-82
2022/01/01 08:29:14;;;;;;;4.70;2.87;;;11.40;99.90;;;;;;5053704;28;20200;-78
2022/01/01 08:31:39;;;;;;;5.23;3.60;;;11.50;99.90;;;;;;5053728;28;20207;-80
2022/01/01 08:34:05;;;;;;;7.47;4.70;;;11.40;99.90;;;;;;5053869;28;20176;-80
2022/01/01 08:36:31;;;;;;;6.70;5.10;;;11.20;99.90;;;;;;5053171;28;20231;-79
2022/01/01 08:38:57;;;;;;;5.67;4.37;;;11.00;99.90;;;;;;5069879;28;20224;-81
2022/01/01 08:41:23;;;;;;;6.83;4.40;;;11.20;99.90;;;;;;5070415;28;20203;-81
2022/01/01 08:43:48;;;;;;;5.53;4.03;;;11.10;99.90;;;;;;5037066;28;20200;-81
2022/01/01 08:46:14;;;;;;;6.83;4.20;;;11.10;99.90;;;;;;5069937;28;20561;-82
2022/01/01 08:48:41;;;;;;;6.90;4.00;;;11.10;99.90;;;;;;5070748;28;20739;-80
2022/01/01 08:51:17;;;;;;;5.60;3.10;;;11.20;99.90;;;;;;5037385;28;20543;-80
2022/01/01 08:53:44;;;;;;;3.60;2.53;;;11.40;99.90;;;;;;5070270;28;20208;-83
2022/01/01 08:56:10;;;;;;;4.30;2.63;;;11.30;99.90;;;;;;5069988;28;20192;-80
2022/01/01 08:58:36;;;;;;;3.03;2.23;;;11.40;99.90;;;;;;5053449;28;20604;-83
2022/01/01 09:01:03;;;;;;;3.43;2.40;;;11.40;99.90;;;;;;5053303;28;20176;-80
2022/01/01 09:03:34;;;;;;;2.70;2.00;;;11.30;99.90;;;;;;5036867;28;20200;-82
2022/01/01 09:06:04;;;;;;;4.63;2.43;;;11.40;99.90;;;;;;5069525;28;20215;-78
2022/01/01 09:08:31;;;;;;;3.00;2.13;;;11.40;99.90;;;;;;5069830;28;20261;-82
2022/01/01 09:10:57;;;;;;;4.47;2.30;;;11.40;99.90;;;;;;5069967;28;20204;-83
2022/01/01 09:13:23;;;;;;;3.80;2.50;;;11.20;99.90;;;;;;5070082;28;20204;-82
2022/01/01 09:15:49;;;;;;;3.07;2.10;;;11.20;99.90;;;;;;5053516;28;20211;-84
2022/01/01 09:18:15;;;;;;;3.50;2.20;;;11.20;99.90;;;;;;5069950;28;20579;-79
2022/01/01 09:20:41;;;;;;;3.43;2.33;;;11.20;99.90;;;;;;5069520;28;20224;-80
2022/01/01 09:23:07;;;;;;;3.10;1.90;;;11.40;99.90;;;;;;5071105;28;20693;-83
2022/01/01 09:25:33;;;;;;;1.97;1.73;;;11.40;99.90;;;;;;5052947;28;20214;-79
2022/01/01 09:28:00;;;;;;;4.77;2.10;;;11.50;99.90;;;;;;5036671;28;20320;-80
2022/01/01 09:30:26;;;;;;;5.33;3.23;;;11.40;99.90;;;;;;5053118;28;20248;-80
2022/01/01 09:32:52;;;;;;;3.40;2.53;;;11.30;99.90;;;;;;5054896;28;20195;-79
2022/01/01 09:35:18;;;;;;;2.83;2.03;;;11.10;99.90;;;;;;5057546;28;20192;-79
2022/01/01 09:37:44;;;;;;;2.80;2.00;;;11.10;99.90;;;;;;5040084;28;20214;-80
2022/01/01 09:40:10;;;;;;;2.97;2.10;;;11.10;99.90;;;;;;5056699;28;20633;-79
2022/01/01 09:42:39;;;;;;;2.63;1.77;;;11.20;99.90;;;;;;5056298;28;20215;-83
2022/01/01 09:45:09;;;;;;;3.77;1.83;;;11.40;99.90;;;;;;5073793;28;20629;-82
2022/01/01 09:47:36;;;;;;;4.17;2.00;;;11.40;99.90;;;;;;5056428;28;20627;-80
2022/01/01 09:50:08;;;;;;;3.53;1.90;;;11.40;99.90;;;;;;5073257;28;20670;-80
2022/01/01 09:52:34;;;;;;;1.83;1.50;;;11.50;99.90;;;;;;5073573;28;20189;-79
2022/01/01 09:55:00;;;;;;;3.20;2.27;;;11.50;99.90;;;;;;5074366;28;20283;-81
2022/01/01 09:57:26;;;;;;;2.90;2.07;;;11.50;99.90;;;;;;5073241;28;20173;-83
2022/01/01 09:59:52;;;;;;;3.57;1.90;;;11.60;99.90;;;;;;5056348;28;20291;-83
2022/01/01 10:02:18;;;;;;;3.30;2.00;;;11.60;99.90;;;;;;5073150;28;20200;-83
2022/01/01 10:04:50;;;;;;;3.70;2.23;;;11.70;99.90;;;;;;5056494;28;20412;-79
2022/01/01 10:07:16;;;;;;;5.47;4.13;;;11.90;99.90;;;;;;5056795;28;20204;-79
2022/01/01 10:09:42;;;;;;;7.10;5.27;;;12.10;99.90;;;;;;5056036;28;20659;-83
2022/01/01 10:12:10;;;;;;;9.47;5.43;;;12.10;99.90;;;;;;5074110;28;20223;-80
2022/01/01 10:14:41;;;;;;;7.17;4.90;;;12.30;99.90;;;;;;5055906;28;20219;-79
2022/01/01 10:17:23;;;;;;;7.73;5.03;;;12.20;99.90;;;;;;5039828;28;20200;-79
2022/01/01 10:19:50;;;;;;;7.07;4.63;;;12.40;99.90;;;;;;5072385;28;20176;-83
2022/01/01 10:22:22;;;;;;;8.27;4.87;;;12.40;99.90;;;;;;5056329;28;20234;-83
2022/01/01 10:27:58;;;;;;;7.00;4.37;;;12.40;99.90;;;;;;5074379;28;20629;-79
2022/01/01 10:30:29;;;;;;;6.90;4.80;;;12.50;99.90;;;;;;5073092;28;20203;-84
2022/01/01 10:33:06;;;;;;;7.17;4.47;;;12.50;99.90;;;;;;5056213;28;20203;-80
2022/01/01 10:35:38;;;;;;;6.37;4.40;;;12.50;99.90;;;;;;5073626;28;20184;-79
2022/01/01 10:38:22;;;;;;;7.03;4.47;;;12.60;99.90;;;;;;5072136;28;20204;-82
2022/01/01 10:40:56;;;;;;;6.27;3.70;;;12.70;99.90;;;;;;5072111;28;20203;-78
2022/01/01 10:43:41;;;;;;;6.67;4.13;;;12.70;99.90;;;;;;5072471;28;20270;-79
2022/01/01 10:46:16;;;;;;;5.77;3.77;;;12.80;99.90;;;;;;5072005;28;20275;-82
2022/01/01 10:48:58;;;;;;;5.63;3.73;;;12.90;99.90;;;;;;5039858;28;20215;-82
2022/01/01 10:51:24;;;;;;;5.43;3.80;;;13.00;99.90;;;;;;5057629;28;20315;-79
2022/01/01 10:54:03;;;;;;;6.10;3.47;;;13.00;99.90;;;;;;5072041;28;20231;-82
2022/01/01 10:56:37;;;;;;;8.00;4.40;;;13.10;99.90;;;;;;5054905;28;20204;-78
2022/01/01 10:59:03;;;;;;;5.33;3.23;;;13.10;99.90;;;;;;5055043;28;20206;-79
2022/01/01 11:01:34;;;;;;;5.77;3.60;;;13.20;99.90;;;;;;5038663;28;20619;-82
2022/01/01 11:04:01;;;;;;;6.10;3.83;;;13.30;99.90;;;;;;5055211;28;20613;-82
2022/01/01 11:06:32;;;;;;;6.23;4.03;;;13.30;99.90;;;;;;5073167;28;20250;-80
2022/01/01 11:08:59;;;;;;;6.83;4.30;;;13.40;99.90;;;;;;5072798;28;20710;-79
2022/01/01 11:11:25;;;;;;;5.83;4.27;;;13.40;99.90;;;;;;5071205;28;20254;-83
2022/01/01 11:13:51;;;;;;;8.40;4.80;;;13.50;99.90;;;;;;5072792;28;20196;-79
2022/01/01 11:16:19;;;;;;;7.67;4.73;;;13.50;99.90;;;;;;5054449;28;20230;-81
2022/01/01 11:18:46;;;;;;;7.73;4.70;;;13.50;99.90;;;;;;5072416;28;20181;-81
2022/01/01 11:21:12;;;;;;;8.67;5.50;;;13.60;99.90;;;;;;5072823;28;20202;-81
2022/01/01 11:23:40;;;;;;;6.43;4.40;;;13.60;99.90;;;;;;5054324;28;20200;-79
2022/01/01 11:26:08;;;;;;;6.40;4.57;;;13.60;99.90;;;;;;5072092;28;20598;-79
2022/01/01 11:28:34;;;;;;;6.77;4.40;;;13.70;99.90;;;;;;5054584;28;20794;-79
2022/01/01 11:31:03;;;;;;;8.07;5.17;;;13.70;99.90;;;;;;5054636;28;20644;-82
2022/01/01 11:33:44;;;;;;;7.17;4.70;;;13.70;99.90;;;;;;5071528;28;20724;-79
2022/01/01 11:36:24;;;;;;;8.60;5.40;;;13.90;99.90;;;;;;5054648;28;20686;-78
2022/01/01 11:38:52;;;;;;;6.97;5.13;;;13.90;99.90;;;;;;5072157;28;20199;-80
2022/01/01 11:41:18;;;;;;;6.03;4.53;;;14.00;99.90;;;;;;5070744;28;20192;-79
2022/01/01 11:43:51;;;;;;;7.30;5.07;;;14.00;99.90;;;;;;5037092;28;20243;-79
2022/01/01 11:46:20;;;;;;;7.27;5.50;;;14.10;99.90;;;;;;5070527;28;20634;-81
2022/01/01 11:48:57;;;;;;;7.90;5.00;;;14.10;99.90;;;;;;5054178;28;20259;-79
2022/01/01 11:51:31;;;;;;;7.60;5.17;;;14.20;99.90;;;;;;5070489;28;20601;-81
2022/01/01 11:54:15;;;;;;;7.90;5.07;;;14.30;99.90;;;;;;5070642;28;20199;-79
2022/01/01 11:56:49;;;;;;;8.77;5.60;;;14.30;99.90;;;;;;5053344;28;20460;-78
2022/01/01 11:59:22;;;;;;;9.97;5.97;;;14.40;99.90;;;;;;5073152;28;20196;-80
2022/01/01 12:01:50;;;;;;;8.32;5.55;;;14.40;99.90;;;;;;5054053;28;20276;-80
2022/01/01 12:04:43;;;;;;;7.97;5.30;;;14.40;99.90;;;;;;5070183;28;20202;-80
2022/01/01 12:07:16;;;;;;;7.93;5.30;;;14.50;99.90;;;;;;5053872;28;20682;-82
2022/01/01 12:10:07;;;;;;;6.87;4.73;;;14.50;99.90;;;;;;5070615;28;20326;-81
2022/01/01 12:12:51;;;;;;;8.17;5.83;;;14.50;99.90;;;;;;5070298;28;20199;-80
2022/01/01 12:15:20;;;;;;;8.30;5.47;;;14.50;99.90;;;;;;5054008;28;20249;-80
2022/01/01 12:17:57;;;;;;;10.80;5.93;;;14.50;99.90;;;;;;5070730;28;20200;-81
2022/01/01 12:20:37;;;;;;;8.47;5.30;;;14.50;99.90;;;;;;5072316;28;20188;-81
2022/01/01 12:23:07;;;;;;;5.77;4.57;;;14.50;99.90;;;;;;5071782;28;20295;-79
2022/01/01 12:25:35;;;;;;;8.03;5.70;;;14.50;99.90;;;;;;5074579;28;20204;-81
2022/01/01 12:28:04;;;;;;;7.87;5.43;;;14.50;99.90;;;;;;5037284;28;20212;-80
2022/01/01 12:30:32;;;;;;;8.27;5.43;;;14.50;99.90;;;;;;5071173;28;20328;-78
2022/01/01 12:32:58;;;;;;;8.20;5.13;;;14.50;99.90;;;;;;5072399;28;20278;-81
2022/01/01 12:35:43;;;;;;;7.27;5.17;;;14.40;99.90;;;;;;5036957;28;20722;-80
2022/01/01 12:38:20;;;;;;;7.55;4.93;;;14.40;99.90;;;;;;5053534;28;20192;-80
2022/01/01 12:41:07;;;;;;;7.63;5.03;;;14.50;99.90;;;;;;5069919;28;20271;-79
2022/01/01 12:43:42;;;;;;;7.43;5.13;;;14.60;99.90;;;;;;5071232;28;20206;-80
2022/01/01 12:46:11;;;;;;;8.75;5.18;;;14.60;99.90;;;;;;5069776;28;20236;-79